createdAt,value
2019-04-21T00:00:27.599Z,100550.37
2019-04-21T00:01:03.889Z,100546.45
2019-04-21T00:01:38.778Z,100543.45
2019-04-21T00:02:05.563Z,100542.55
2019-04-21T00:02:39.721Z,100542.10
2019-04-21T00:03:18.181Z,100543.39
2019-04-21T00:03:50.243Z,100541.22
2019-04-21T00:04:27.310Z,100544.25
2019-04-21T00:04:57.939Z,100541.66
2019-04-21T00:05:38.629Z,100541.22
2019-04-21T00:06:18.402Z,100543.80
2019-04-21T00:06:49.207Z,100538.63
2019-04-21T00:07:20.333Z,100537.33
2019-04-21T00:07:50.501Z,100536.05
2019-04-21T00:08:33.637Z,100539.97
2019-04-21T00:09:02.723Z,100540.42
2019-04-21T00:09:33.718Z,100538.23
2019-04-21T00:10:06.278Z,100538.23
2019-04-21T00:10:44.030Z,100535.65
2019-04-21T00:11:41.053Z,100536.09
2019-04-21T00:12:48.948Z,100535.64
2019-04-21T00:13:21.118Z,100533.91
2019-04-21T00:13:47.006Z,100528.29
2019-04-21T00:14:22.555Z,100530.03
2019-04-21T00:14:49.748Z,100532.16
2019-04-21T00:15:27.075Z,100529.57
2019-04-21T00:15:53.820Z,100527.84
2019-04-21T00:16:32.140Z,100531.27
2019-04-21T00:17:02.771Z,100527.39
2019-04-21T00:17:27.065Z,100536.03
2019-04-21T00:18:02.420Z,100530.47
2019-04-21T00:18:41.825Z,100531.77
2019-04-21T00:19:11.880Z,100524.46
2019-04-21T00:19:39.533Z,100525.75
2019-04-21T00:20:20.469Z,100528.34
2019-04-21T00:20:49.796Z,100526.66
2019-04-21T00:21:26.566Z,100534.02
2019-04-21T00:21:58.123Z,100527.98
2019-04-21T00:22:34.493Z,100533.16
2019-04-21T00:23:15.293Z,100528.83
2019-04-21T00:23:41.166Z,100529.68
2019-04-21T00:24:17.723Z,100530.08
2019-04-21T00:24:52.137Z,100531.38
2019-04-21T00:25:25.333Z,100531.82
2019-04-21T00:25:54.207Z,100533.52
2019-04-21T00:26:33.529Z,100536.98
2019-04-21T00:27:03.902Z,100533.95
2019-04-21T00:27:36.887Z,100532.21
2019-04-21T00:28:20.144Z,100531.76
2019-04-21T00:28:54.032Z,100532.16
2019-04-21T00:29:21.287Z,100530.88
2019-04-21T00:29:47.610Z,100533.46
2019-04-21T00:30:27.498Z,100532.62
2019-04-21T00:30:59.279Z,100533.06
2019-04-21T00:31:27.059Z,100527.48
2019-04-21T00:32:00.653Z,100530.92
2019-04-21T00:32:29.220Z,100531.77
2019-04-21T00:32:56.342Z,100530.48
2019-04-21T00:33:26.657Z,100530.48
2019-04-21T00:33:55.144Z,100534.80
2019-04-21T00:34:28.105Z,100532.62
2019-04-21T00:35:07.697Z,100536.94
2019-04-21T00:35:41.445Z,100530.88
2019-04-21T00:36:13.171Z,100532.60
2019-04-21T00:36:48.820Z,100530.88
2019-04-21T00:37:20.770Z,100528.73
2019-04-21T00:38:04.833Z,100527.00
2019-04-21T00:38:56.088Z,100522.27
2019-04-21T00:39:20.913Z,100523.12
2019-04-21T00:40:16.616Z,100522.27
2019-04-21T00:40:54.093Z,100526.59
2019-04-21T00:41:26.031Z,100524.46
2019-04-21T00:41:57.716Z,100518.00
2019-04-21T00:42:29.176Z,100529.23
2019-04-21T00:42:59.884Z,100528.38
2019-04-21T00:43:27.977Z,100527.10
2019-04-21T00:44:00.709Z,100530.09
2019-04-21T00:44:29.467Z,100531.38
2019-04-21T00:45:09.786Z,100527.94
2019-04-21T00:45:39.215Z,100532.22
2019-04-21T00:46:08.476Z,100535.65
2019-04-21T00:46:47.719Z,100530.02
2019-04-21T00:47:26.666Z,100530.02
2019-04-21T00:48:00.425Z,100532.56
2019-04-21T00:48:32.932Z,100539.47
2019-04-21T00:49:01.994Z,100536.44
2019-04-21T00:49:26.930Z,100538.56
2019-04-21T00:50:25.643Z,100532.95
2019-04-21T00:50:53.217Z,100535.53
2019-04-21T00:51:58.385Z,100536.78
2019-04-21T00:52:30.315Z,100537.66
2019-04-21T00:53:00.434Z,100533.78
2019-04-21T00:53:38.480Z,100532.05
2019-04-21T00:54:03.967Z,100534.64
2019-04-21T00:54:46.371Z,100538.11
2019-04-21T00:55:14.271Z,100536.37
2019-04-21T00:55:44.602Z,100535.08
2019-04-21T00:56:16.247Z,100532.94
2019-04-21T00:56:49.601Z,100533.79
2019-04-21T00:57:26.045Z,100528.17
2019-04-21T00:57:58.639Z,100529.45
2019-04-21T00:58:28.665Z,100532.55
2019-04-21T00:58:59.580Z,100526.53
2019-04-21T00:59:38.331Z,100531.30
2019-04-21T01:00:06.967Z,100529.57
2019-04-21T01:00:35.007Z,100530.42
2019-04-21T01:01:09.105Z,100532.16
2019-04-21T01:01:46.028Z,100530.47
2019-04-21T01:02:09.424Z,100527.89
2019-04-21T01:02:51.123Z,100526.19
2019-04-21T01:03:23.045Z,100528.78
2019-04-21T01:03:57.897Z,100525.35
2019-04-21T01:04:33.761Z,100521.91
2019-04-21T01:05:08.757Z,100523.22
2019-04-21T01:05:36.590Z,100525.41
2019-04-21T01:06:03.676Z,100523.67
2019-04-21T01:06:42.814Z,100525.81
2019-04-21T01:07:13.827Z,100527.05
2019-04-21T01:07:41.053Z,100522.32
2019-04-21T01:08:17.671Z,100519.28
2019-04-21T01:08:46.829Z,100521.83
2019-04-21T01:09:19.763Z,100523.55
2019-04-21T01:09:48.788Z,100526.94
2019-04-21T01:10:21.117Z,100520.03
2019-04-21T01:10:56.951Z,100523.45
2019-04-21T01:11:31.832Z,100528.17
2019-04-21T01:12:08.372Z,100203.12
2019-04-21T01:12:41.793Z,100526.80
2019-04-21T01:13:16.886Z,100526.76
2019-04-21T01:13:56.788Z,100527.66
2019-04-21T01:14:29.875Z,100518.61
2019-04-21T01:14:58.151Z,100531.08
2019-04-21T01:15:31.164Z,100524.61
2019-04-21T01:15:59.774Z,100528.45
2019-04-21T01:16:33.224Z,100528.44
2019-04-21T01:17:06.777Z,100522.42
2019-04-21T01:17:35.673Z,100525.84
2019-04-21T01:18:14.861Z,100524.89
2019-04-21T01:18:42.729Z,100530.05
2019-04-21T01:19:12.107Z,100522.29
2019-04-21T01:19:47.030Z,100521.41
2019-04-21T01:20:12.903Z,100527.41
2019-04-21T01:20:33.424Z,100521.34
2019-04-21T01:21:13.639Z,100523.91
2019-04-21T01:21:37.588Z,100503.95
2019-04-21T01:22:08.832Z,100519.95
2019-04-21T01:22:40.080Z,100520.36
2019-04-21T01:23:12.577Z,100520.80
2019-04-21T01:23:44.557Z,100522.48
2019-04-21T01:24:21.631Z,100528.94
2019-04-21T01:24:57.866Z,100526.30
2019-04-21T01:25:30.259Z,100521.13
2019-04-21T01:26:10.634Z,100523.72
2019-04-21T01:26:39.298Z,100522.88
2019-04-21T01:27:11.137Z,100522.03
2019-04-21T01:27:53.771Z,100526.36
2019-04-21T01:28:27.028Z,100522.08
2019-04-21T01:28:58.406Z,100523.38
2019-04-21T01:29:39.132Z,100518.61
2019-04-21T01:30:08.509Z,100525.51
2019-04-21T01:30:40.992Z,100518.60
2019-04-21T01:31:10.997Z,100525.91
2019-04-21T01:31:42.227Z,100526.30
2019-04-21T01:32:24.223Z,100521.12
2019-04-21T01:32:55.792Z,100521.95
2019-04-21T01:33:26.297Z,100520.61
2019-04-21T01:34:01.257Z,100523.62
2019-04-21T01:34:33.012Z,100518.45
2019-04-21T01:35:02.630Z,100520.98
2019-04-21T01:35:35.428Z,100520.12
2019-04-21T01:36:03.750Z,100522.70
2019-04-21T01:36:38.826Z,100517.49
2019-04-21T01:37:10.895Z,100518.37
2019-04-21T01:37:52.783Z,100514.51
2019-04-21T01:38:24.505Z,100514.97
2019-04-21T01:38:58.318Z,100516.70
2019-04-21T01:39:30.807Z,100508.12
2019-04-21T01:40:02.518Z,100519.75
2019-04-21T01:40:34.861Z,100516.33
2019-04-21T01:41:07.096Z,100512.91
2019-04-21T01:41:42.836Z,100516.34
2019-04-21T01:42:11.998Z,100514.22
2019-04-21T01:42:45.493Z,100512.93
2019-04-21T01:43:17.606Z,100513.81
2019-04-21T01:43:51.549Z,100513.38
2019-04-21T01:44:34.876Z,100513.36
2019-04-21T01:44:59.467Z,100506.47
2019-04-21T01:45:30.707Z,100512.09
2019-04-21T01:46:03.933Z,100513.39
2019-04-21T01:46:30.998Z,100511.69
2019-04-21T01:47:02.823Z,100510.80
2019-04-21T01:47:36.135Z,100509.05
2019-04-21T01:48:10.935Z,100505.57
2019-04-21T01:48:42.764Z,100506.01
2019-04-21T01:49:13.052Z,100506.84
2019-04-21T01:49:43.067Z,100507.29
2019-04-21T01:50:22.209Z,100506.06
2019-04-21T01:50:55.510Z,100506.09
2019-04-21T01:51:29.594Z,100502.66
2019-04-21T01:52:17.805Z,100504.80
2019-04-21T01:52:44.161Z,100503.11
2019-04-21T01:53:12.858Z,100507.00
2019-04-21T01:53:42.452Z,100504.86
2019-04-21T01:54:18.620Z,100504.45
2019-04-21T01:54:53.405Z,100503.56
2019-04-21T01:55:24.956Z,100504.00
2019-04-21T01:55:54.301Z,100509.56
2019-04-21T01:56:24.513Z,100506.97
2019-04-21T01:56:58.510Z,100503.48
2019-04-21T01:57:31.917Z,100506.08
2019-04-21T01:58:02.093Z,100506.52
2019-04-21T01:58:31.489Z,100506.47
2019-04-21T01:59:02.721Z,100506.91
2019-04-21T01:59:36.685Z,100500.41
2019-04-21T02:00:12.273Z,100499.99
2019-04-21T02:00:44.825Z,100502.13
2019-04-21T02:01:26.129Z,100502.13
2019-04-21T02:02:00.423Z,100501.23
2019-04-21T02:02:32.193Z,100498.65
2019-04-21T02:03:10.040Z,100492.62
2019-04-21T02:04:11.727Z,100500.38
2019-04-21T02:04:54.310Z,100496.05
2019-04-21T02:05:17.453Z,100496.44
2019-04-21T02:05:55.345Z,100501.17
2019-04-21T02:06:21.386Z,100505.49
2019-04-21T02:06:59.917Z,100496.49
2019-04-21T02:07:27.521Z,100507.67
2019-04-21T02:07:58.065Z,100496.89
2019-04-21T02:08:34.615Z,100500.33
2019-04-21T02:09:08.162Z,100501.17
2019-04-21T02:09:38.065Z,100503.34
2019-04-21T02:10:11.477Z,100501.59
2019-04-21T02:10:46.277Z,100499.42
2019-04-21T02:11:16.934Z,100496.81
2019-04-21T02:11:55.110Z,100498.06
2019-04-21T02:12:26.580Z,100494.19
2019-04-21T02:12:56.754Z,100497.64
2019-04-21T02:13:24.683Z,100491.59
2019-04-21T02:14:41.246Z,100494.56
2019-04-21T02:15:14.332Z,100496.75
2019-04-21T02:15:42.329Z,100495.47
2019-04-21T02:16:28.134Z,100498.04
2019-04-21T02:16:47.781Z,100494.61
2019-04-21T02:17:16.376Z,100497.66
2019-04-21T02:17:57.487Z,100497.22
2019-04-21T02:18:22.023Z,100492.95
2019-04-21T02:18:54.497Z,100492.50
2019-04-21T02:19:26.177Z,100497.27
2019-04-21T02:19:57.799Z,100485.65
2019-04-21T02:20:29.347Z,100491.66
2019-04-21T02:20:58.018Z,100492.10
2019-04-21T02:21:41.987Z,100493.39
2019-04-21T02:22:21.569Z,100492.05
2019-04-21T02:23:07.374Z,100489.45
2019-04-21T02:23:58.726Z,100490.28
2019-04-21T02:24:34.924Z,100495.41
2019-04-21T02:25:02.842Z,100496.69
2019-04-21T02:25:51.024Z,100495.41
2019-04-21T02:26:09.824Z,100497.98
2019-04-21T02:26:40.025Z,100491.98
2019-04-21T02:27:17.704Z,100490.69
2019-04-21T02:27:50.227Z,100494.11
2019-04-21T02:28:31.803Z,100490.23
2019-04-21T02:28:56.552Z,100497.59
2019-04-21T02:29:28.567Z,100493.77
2019-04-21T02:29:59.825Z,100494.19
2019-04-21T02:30:49.245Z,100495.52
2019-04-21T02:31:20.929Z,100498.56
2019-04-21T02:31:45.199Z,100492.10
2019-04-21T02:32:14.917Z,100490.42
2019-04-21T02:34:02.660Z,100495.61
2019-04-21T02:34:38.364Z,100489.16
2019-04-21T02:36:22.715Z,100496.44
2019-04-21T02:38:30.727Z,100489.44
2019-04-21T02:40:05.123Z,100489.78
2019-04-21T02:40:44.152Z,100493.66
2019-04-21T02:41:05.815Z,100491.95
2019-04-21T02:41:55.715Z,100489.77
2019-04-21T02:42:07.880Z,100493.63
2019-04-21T02:43:05.381Z,100498.36
2019-04-21T02:44:00.691Z,100494.47
2019-04-21T02:44:35.360Z,100491.42
2019-04-21T02:45:00.385Z,100495.76
2019-04-21T02:45:29.683Z,100494.91
2019-04-21T02:46:12.570Z,100490.61
2019-04-21T02:46:37.962Z,100494.94
2019-04-21T02:47:07.137Z,100491.49
2019-04-21T02:48:19.382Z,100495.00
2019-04-21T02:48:56.417Z,100495.89
2019-04-21T02:49:50.768Z,100495.92
2019-04-21T02:50:31.725Z,100490.37
2019-04-21T02:50:57.628Z,100498.56
2019-04-21T02:51:42.147Z,100490.88
2019-04-21T02:52:16.171Z,100485.27
2019-04-21T02:52:43.671Z,100495.16
2019-04-21T02:53:21.229Z,100487.02
2019-04-21T02:54:31.486Z,100488.77
2019-04-21T02:54:48.232Z,100488.77
2019-04-21T02:54:54.008Z,100487.02
2019-04-21T02:55:31.242Z,100486.58
2019-04-21T02:56:01.092Z,100489.55
2019-04-21T02:57:08.942Z,100489.97
2019-04-21T02:57:41.477Z,100493.41
2019-04-21T02:58:18.222Z,100492.10
2019-04-21T02:58:59.482Z,100489.97
2019-04-21T02:59:42.286Z,100492.95
2019-04-21T03:00:30.291Z,100489.00
2019-04-21T03:00:59.737Z,100493.31
2019-04-21T03:01:38.213Z,100490.67
2019-04-21T03:02:43.045Z,100492.28
2019-04-21T03:05:50.745Z,100487.95
2019-04-21T03:06:45.760Z,100488.00
2019-04-21T03:07:09.306Z,100485.88
2019-04-21T03:08:05.703Z,100485.43
2019-04-21T03:08:42.791Z,100487.11
2019-04-21T03:10:20.565Z,100485.73
2019-04-21T03:10:53.253Z,100489.15
2019-04-21T03:11:17.422Z,100486.96
2019-04-21T03:12:05.249Z,100485.72
2019-04-21T03:12:22.540Z,100485.22
2019-04-21T03:13:08.131Z,100481.33
2019-04-21T03:14:22.362Z,100482.55
2019-04-21T03:14:48.118Z,100482.14
2019-04-21T03:15:29.609Z,100482.53
2019-04-21T03:15:47.216Z,100486.41
2019-04-21T03:16:22.884Z,100485.17
2019-04-21T03:16:47.182Z,100482.14
2019-04-21T03:17:43.654Z,100484.28
2019-04-21T03:18:07.566Z,100484.28
2019-04-21T03:18:37.673Z,100483.83
2019-04-21T03:19:05.019Z,100483.38
2019-04-21T03:19:45.518Z,100481.64
2019-04-21T03:20:15.078Z,100479.06
2019-04-21T03:20:47.338Z,100482.06
2019-04-21T03:21:52.509Z,100489.30
2019-04-21T03:22:20.018Z,100476.38
2019-04-21T03:23:00.186Z,100480.69
2019-04-21T03:23:33.108Z,100488.37
2019-04-21T03:24:01.206Z,100474.61
2019-04-21T03:25:00.886Z,100481.47
2019-04-21T03:25:51.971Z,100481.90
2019-04-21T03:26:25.005Z,100482.73
2019-04-21T03:27:01.385Z,100478.02
2019-04-21T03:27:56.957Z,100483.18
2019-04-21T03:28:24.196Z,100482.73
2019-04-21T03:29:03.318Z,100484.47
2019-04-21T03:29:34.898Z,100480.59
2019-04-21T03:32:25.832Z,100482.73
2019-04-21T03:33:06.017Z,100481.90
2019-04-21T03:34:29.338Z,100482.27
2019-04-21T03:34:51.450Z,100477.95
2019-04-21T03:36:37.254Z,100476.57
2019-04-21T03:37:02.745Z,100474.38
2019-04-21T03:37:16.616Z,100474.80
2019-04-21T03:38:18.896Z,100476.50
2019-04-21T03:38:45.362Z,100476.09
2019-04-21T03:39:35.073Z,100476.48
2019-04-21T03:39:59.765Z,100470.50
2019-04-21T03:40:26.708Z,100475.67
2019-04-21T03:40:58.777Z,100472.24
2019-04-21T03:41:39.971Z,100476.57
2019-04-21T03:42:42.664Z,100479.16
2019-04-21T03:43:12.722Z,100472.70
2019-04-21T03:43:54.678Z,100466.25
2019-04-21T03:45:34.847Z,100479.60
2019-04-21T03:45:58.517Z,100474.02
2019-04-21T03:47:08.366Z,100471.61
2019-04-21T03:47:40.558Z,100472.15
2019-04-21T03:48:14.811Z,100475.66
2019-04-21T03:48:42.732Z,100473.15
2019-04-21T03:49:23.036Z,100471.11
2019-04-21T03:50:46.952Z,100470.03
2019-04-21T03:51:25.820Z,100472.22
2019-04-21T03:52:03.529Z,100470.95
2019-04-21T03:53:39.984Z,100475.34
2019-04-21T03:54:13.692Z,100474.50
2019-04-21T03:54:54.114Z,100475.84
2019-04-21T03:55:41.579Z,100474.17
2019-04-21T03:55:58.709Z,100466.94
2019-04-21T03:56:29.625Z,100470.49
2019-04-21T03:57:08.854Z,100470.56
2019-04-21T03:57:46.629Z,100468.95
2019-04-21T03:58:15.207Z,100464.77
2019-04-21T03:58:50.504Z,100467.87
2019-04-21T03:59:45.526Z,100463.34
2019-04-21T04:00:20.899Z,100468.60
2019-04-21T04:01:17.963Z,100466.12
2019-04-21T04:01:58.434Z,100470.08
2019-04-21T04:02:45.123Z,100467.94
2019-04-21T04:03:07.661Z,100468.79
2019-04-21T04:04:34.196Z,100463.54
2019-04-21T04:05:40.656Z,100463.50
2019-04-21T04:06:01.960Z,100464.36
2019-04-21T04:07:06.086Z,100466.12
2019-04-21T04:08:03.890Z,100462.80
2019-04-21T04:08:44.010Z,100464.16
2019-04-21T04:09:40.064Z,100462.13
2019-04-21T04:10:08.205Z,100462.64
2019-04-21T04:10:50.334Z,100456.61
2019-04-21T04:11:53.033Z,100460.11
2019-04-21T04:12:50.349Z,100465.75
2019-04-21T04:13:27.633Z,100464.87
2019-04-21T04:15:07.152Z,100470.41
2019-04-21T04:16:10.297Z,100463.45
2019-04-21T04:16:47.471Z,100462.52
2019-04-21T04:17:49.926Z,100457.64
2019-04-21T04:18:33.428Z,100462.34
2019-04-21T04:19:07.755Z,100460.92
2019-04-21T04:20:24.049Z,100462.39
2019-04-21T04:20:39.920Z,100458.78
2019-04-21T04:21:13.313Z,100459.64
2019-04-21T04:22:14.643Z,100462.16
2019-04-21T04:22:52.608Z,100464.75
2019-04-21T04:23:41.568Z,100462.20
2019-04-21T04:24:00.864Z,100463.47
2019-04-21T04:25:07.350Z,100462.95
2019-04-21T04:25:28.075Z,100467.17
2019-04-21T04:26:07.390Z,100465.35
2019-04-21T04:27:22.450Z,100466.45
2019-04-21T04:28:38.482Z,100469.12
2019-04-21T04:28:58.026Z,100461.12
2019-04-21T04:29:19.565Z,100468.47
2019-04-21T04:29:59.207Z,100471.92
2019-04-21T04:30:32.008Z,100468.41
2019-04-21T04:31:05.663Z,100466.58
2019-04-21T04:32:53.747Z,100463.47
2019-04-21T04:33:22.795Z,100462.86
2019-04-21T04:33:58.072Z,100464.41
2019-04-21T04:34:24.838Z,100464.24
2019-04-21T04:34:56.916Z,100466.20
2019-04-21T04:35:34.495Z,100464.70
2019-04-21T04:36:01.528Z,100466.36
2019-04-21T04:37:29.561Z,100468.58
2019-04-21T04:37:38.884Z,100465.32
2019-04-21T04:38:13.136Z,100467.25
2019-04-21T04:38:51.391Z,100467.48
2019-04-21T04:39:36.727Z,100465.51
2019-04-21T04:39:48.747Z,100460.27
2019-04-21T04:44:03.220Z,100469.94
2019-04-21T04:45:10.257Z,100464.55
2019-04-21T04:46:02.191Z,100468.88
2019-04-21T04:47:00.006Z,100467.31
2019-04-21T04:48:28.950Z,100467.47
2019-04-21T04:50:19.718Z,100464.73
2019-04-21T04:50:53.559Z,100462.30
2019-04-21T04:52:21.005Z,100464.28
2019-04-21T04:52:37.851Z,100460.67
2019-04-21T04:53:47.404Z,100464.82
2019-04-21T04:55:00.704Z,100465.70
2019-04-21T04:55:40.999Z,100465.86
2019-04-21T04:56:56.364Z,100464.06
2019-04-21T04:57:45.174Z,100458.77
2019-04-21T05:00:01.212Z,100455.84
2019-04-21T05:00:34.483Z,100458.28
2019-04-21T05:01:14.755Z,100450.72
2019-04-21T05:02:48.956Z,100456.22
2019-04-21T05:03:36.456Z,100458.91
2019-04-21T05:05:51.059Z,100455.53
2019-04-21T05:06:34.849Z,100456.63
2019-04-21T05:07:09.727Z,100459.92
2019-04-21T05:08:23.930Z,100466.21
2019-04-21T05:08:43.838Z,100465.41
2019-04-21T05:09:41.385Z,100465.65
2019-04-21T05:22:31.470Z,100478.23
2019-04-21T05:22:58.193Z,100470.95
2019-04-21T05:23:35.147Z,100464.48
2019-04-21T05:24:01.388Z,100464.32
2019-04-21T05:25:15.634Z,100462.34
2019-04-21T05:25:49.971Z,100459.98
2019-04-21T05:26:18.509Z,100464.30
2019-04-21T05:26:55.412Z,100462.60
2019-04-21T05:27:24.935Z,100464.64
2019-04-21T05:28:01.058Z,100468.11
2019-04-21T05:28:32.725Z,100465.08
2019-04-21T05:29:09.010Z,100462.98
2019-04-21T05:30:36.901Z,100434.92
2019-04-21T05:31:14.083Z,100454.02
2019-04-21T05:31:46.322Z,100463.61
2019-04-21T05:32:13.381Z,100457.00
2019-04-21T05:33:27.609Z,100451.20
2019-04-21T05:34:06.096Z,100458.73
2019-04-21T05:34:30.513Z,100455.30
2019-04-21T05:35:10.849Z,100456.31
2019-04-21T05:35:40.560Z,100452.33
2019-04-21T05:36:52.095Z,100456.56
2019-04-21T05:37:30.500Z,100455.92
2019-04-21T05:38:02.016Z,100455.73
2019-04-21T05:38:34.722Z,100456.22
2019-04-21T05:39:07.190Z,100458.20
2019-04-21T05:39:37.516Z,100459.73
2019-04-21T05:40:10.535Z,100460.63
2019-04-21T05:40:38.844Z,100457.55
2019-04-21T05:41:52.890Z,100458.24
2019-04-21T05:42:28.881Z,100459.72
2019-04-21T05:43:07.978Z,100452.58
2019-04-21T05:43:45.453Z,100456.30
2019-04-21T05:44:21.039Z,100460.50
2019-04-21T05:45:24.177Z,100455.00
2019-04-21T05:46:02.562Z,100458.20
2019-04-21T05:46:35.673Z,100457.31
2019-04-21T05:47:55.915Z,100461.98
2019-04-21T05:48:51.894Z,100456.43
2019-04-21T05:57:25.431Z,100461.83
2019-04-21T05:58:03.951Z,100461.09
2019-04-21T05:59:13.796Z,100458.72
2019-04-21T05:59:49.150Z,100449.99
2019-04-21T06:00:23.681Z,100449.95
2019-04-21T06:01:35.866Z,100459.41
2019-04-21T06:02:15.208Z,100453.80
2019-04-21T06:02:40.036Z,100452.72
2019-04-21T06:03:57.352Z,100451.00
2019-04-21T06:05:58.044Z,100454.13
2019-04-21T06:06:20.673Z,100455.05
2019-04-21T06:06:56.810Z,100451.27
2019-04-21T06:07:28.803Z,100447.19
2019-04-21T06:08:02.777Z,100448.36
2019-04-21T06:09:57.196Z,100446.33
2019-04-21T06:10:27.334Z,100443.20
2019-04-21T06:11:04.806Z,100281.77
2019-04-21T06:11:30.577Z,100443.84
2019-04-21T06:12:03.173Z,100441.55
2019-04-21T06:15:26.578Z,100433.55
2019-04-21T06:15:56.265Z,100435.19
2019-04-21T06:16:36.425Z,100437.24
2019-04-21T06:17:01.519Z,100429.75
2019-04-21T06:18:58.669Z,100430.25
2019-04-21T06:19:36.705Z,100432.70
2019-04-21T06:20:35.347Z,100432.45
2019-04-21T06:24:29.953Z,100426.73
2019-04-21T06:26:25.432Z,100430.37
2019-04-21T06:29:13.352Z,100434.88
2019-04-21T06:29:44.008Z,100434.03
2019-04-21T06:31:29.129Z,100437.78
2019-04-21T06:32:09.380Z,100433.02
2019-04-21T06:33:51.558Z,100425.78
2019-04-21T06:34:24.877Z,100432.53
2019-04-21T06:35:40.211Z,100430.66
2019-04-21T06:36:23.987Z,100430.11
2019-04-21T06:37:21.895Z,100428.89
2019-04-21T06:38:23.453Z,100429.45
2019-04-21T06:39:00.019Z,100425.42
2019-04-21T06:39:25.590Z,100430.14
2019-04-21T06:40:43.828Z,100424.95
2019-04-21T06:42:40.117Z,100421.14
2019-04-21T06:43:18.279Z,100418.78
2019-04-21T06:43:51.129Z,100421.44
2019-04-21T06:46:30.855Z,100424.66
2019-04-21T06:47:03.309Z,100424.51
2019-04-21T06:48:22.460Z,100427.13
2019-04-21T06:48:53.692Z,100427.09
2019-04-21T06:49:16.210Z,100425.15
2019-04-21T06:49:50.562Z,100428.79
2019-04-21T06:50:30.203Z,100428.99
2019-04-21T06:50:59.437Z,100424.48
2019-04-21T06:53:10.737Z,100432.73
2019-04-21T06:53:40.834Z,100426.91
2019-04-21T06:54:10.190Z,100426.22
2019-04-21T06:54:44.381Z,100427.27
2019-04-21T06:57:23.129Z,100423.90
2019-04-21T06:57:55.890Z,100420.33
2019-04-21T06:58:25.217Z,100424.61
2019-04-21T06:59:01.537Z,100425.62
2019-04-21T06:59:31.668Z,100426.84
2019-04-21T07:01:26.550Z,100430.09
2019-04-21T07:02:13.180Z,100427.84
2019-04-21T07:03:43.930Z,100428.27
2019-04-21T07:05:15.433Z,100427.70
2019-04-21T07:05:52.458Z,100432.24
2019-04-21T07:06:20.088Z,100426.85
2019-04-21T07:07:33.291Z,100430.05
2019-04-21T07:08:54.390Z,100423.45
2019-04-21T07:09:57.234Z,100432.02
2019-04-21T07:10:30.498Z,100421.05
2019-04-21T07:11:05.394Z,100429.12
2019-04-21T07:14:29.372Z,100414.92
2019-04-21T07:14:59.513Z,100422.73
2019-04-21T07:16:15.330Z,100422.09
2019-04-21T07:16:44.718Z,100420.66
2019-04-21T07:20:07.262Z,100420.01
2019-04-21T07:23:17.484Z,100415.05
2019-04-21T07:27:52.336Z,100410.77
2019-04-21T07:28:28.512Z,100408.77
2019-04-21T07:29:02.889Z,100413.83
2019-04-21T07:29:34.445Z,100404.64
2019-04-21T07:30:04.322Z,100403.25
2019-04-21T07:31:17.868Z,100402.23
2019-04-21T07:39:00.248Z,100393.92
2019-04-21T07:39:32.568Z,100394.01
2019-04-21T07:53:29.777Z,100385.95
2019-04-21T07:54:44.435Z,100386.77
2019-04-21T07:56:06.544Z,100298.39
2019-04-21T07:56:34.992Z,100384.84
2019-04-21T08:04:14.977Z,100383.09
2019-04-21T08:05:20.000Z,100378.52
2019-04-21T08:05:53.723Z,100381.34
2019-04-21T08:06:26.847Z,100385.03
2019-04-21T08:07:01.253Z,100384.23
2019-04-21T08:07:41.527Z,100381.09
2019-04-21T08:08:15.900Z,100387.03
2019-04-21T08:08:34.245Z,100384.14
2019-04-21T08:09:09.044Z,100382.27
2019-04-21T08:09:40.989Z,100377.95
2019-04-21T08:10:09.113Z,100376.89
2019-04-21T08:10:44.297Z,100378.97
2019-04-21T08:11:19.649Z,100373.30
2019-04-21T08:11:50.033Z,100369.30
2019-04-21T08:12:20.106Z,100369.23
2019-04-21T08:12:54.221Z,100372.54
2019-04-21T08:13:45.888Z,100380.59
2019-04-21T08:14:11.623Z,100366.59
2019-04-21T08:14:45.962Z,100361.89
2019-04-21T08:15:18.245Z,100366.06
2019-04-21T08:15:59.559Z,100366.84
2019-04-21T08:16:18.697Z,100367.88
2019-04-21T08:16:56.034Z,100370.89
2019-04-21T08:17:28.475Z,100368.77
2019-04-21T08:17:57.089Z,100360.16
2019-04-21T08:18:33.518Z,100367.25
2019-04-21T08:19:09.187Z,100365.33
2019-04-21T08:19:35.421Z,100367.09
2019-04-21T08:20:09.602Z,100363.15
2019-04-21T08:20:38.736Z,100360.53
2019-04-21T08:21:15.116Z,100369.10
2019-04-21T08:21:54.102Z,100369.10
2019-04-21T08:22:27.164Z,100350.95
2019-04-21T08:22:58.919Z,100357.53
2019-04-21T08:23:25.377Z,100347.78
2019-04-21T08:23:54.830Z,100357.07
2019-04-21T08:24:37.221Z,100357.05
2019-04-21T08:25:03.255Z,100354.12
2019-04-21T08:25:50.845Z,100354.53
2019-04-21T08:26:07.939Z,100353.48
2019-04-21T08:26:45.154Z,100351.48
2019-04-21T08:27:18.948Z,100349.52
2019-04-21T08:28:25.917Z,100349.25
2019-04-21T08:29:01.075Z,100350.56
2019-04-21T08:29:33.381Z,100342.23
2019-04-21T08:30:01.484Z,100341.35
2019-04-21T08:30:47.524Z,100343.62
2019-04-21T08:31:09.831Z,100346.78
2019-04-21T08:31:50.681Z,100350.58
2019-04-21T08:32:18.098Z,100350.30
2019-04-21T08:33:24.681Z,100348.33
2019-04-21T08:33:56.476Z,100350.91
2019-04-21T08:34:28.397Z,100348.98
2019-04-21T08:36:11.017Z,100346.78
2019-04-21T08:36:19.072Z,100348.73
2019-04-21T08:36:33.957Z,100348.69
2019-04-21T08:37:12.270Z,100346.80
2019-04-21T08:37:43.184Z,100348.19
2019-04-21T08:38:20.045Z,100346.41
2019-04-21T08:38:54.066Z,100340.72
2019-04-21T08:39:33.156Z,100339.92
2019-04-21T08:40:12.281Z,100339.51
2019-04-21T08:41:08.661Z,100341.72
2019-04-21T08:41:39.454Z,100341.16
2019-04-21T08:42:15.534Z,100337.97
2019-04-21T08:42:44.800Z,100340.61
2019-04-21T08:43:27.538Z,100339.08
2019-04-21T08:43:53.207Z,100340.31
2019-04-21T08:44:26.178Z,100337.75
2019-04-21T08:44:54.117Z,100337.58
2019-04-21T08:45:35.365Z,100333.27
2019-04-21T08:46:06.722Z,100334.48
2019-04-21T08:46:44.686Z,100334.00
2019-04-21T08:47:14.141Z,100329.45
2019-04-21T08:47:47.692Z,100336.66
2019-04-21T08:48:18.136Z,100330.27
2019-04-21T08:48:58.970Z,100334.78
2019-04-21T08:49:22.307Z,100335.45
2019-04-21T08:50:03.506Z,100329.64
2019-04-21T08:50:30.920Z,100330.44
2019-04-21T08:51:22.506Z,100331.52
2019-04-21T08:51:50.455Z,100330.50
2019-04-21T08:52:29.495Z,100329.65
2019-04-21T08:53:24.783Z,100330.56
2019-04-21T08:54:15.266Z,100329.85
2019-04-21T08:54:26.474Z,100333.14
2019-04-21T08:55:05.608Z,100328.77
2019-04-21T08:55:39.745Z,100329.85
2019-04-21T08:56:10.035Z,100338.58
2019-04-21T08:56:43.532Z,100335.70
2019-04-21T08:57:19.674Z,100335.02
2019-04-21T08:57:58.318Z,100331.56
2019-04-21T08:58:57.534Z,100331.23